Time;durP1;ratioP1;P1;durP2;ratioP2;P2;SDS_P1;SDS_P2;PMS_P1;PMS_P2;Temp;Humidity;BMP_temperature;BMP_pressure;BME280_temperature;BME280_humidity;BME280_pressure;Samples;Min_cycle;Max_cycle;Signal;HPM_P1;HPM_P2
2022/03/09 00:01:55;;;;;;;11.98;10.20;;;5.70;99.90;;;;;;5036825;28;20052;-73
2022/03/09 00:04:21;;;;;;;10.55;8.60;;;5.70;99.90;;;;;;5031812;28;20156;-72
2022/03/09 00:06:47;;;;;;;8.00;6.53;;;5.60;99.90;;;;;;5037452;28;20037;-72
2022/03/09 00:09:14;;;;;;;8.88;7.97;;;5.70;99.90;;;;;;5036984;28;20033;-73
2022/03/09 00:11:40;;;;;;;9.13;7.82;;;5.70;99.90;;;;;;5037179;28;20187;-71
2022/03/09 00:14:06;;;;;;;10.00;7.65;;;5.70;99.90;;;;;;5036006;28;20040;-72
2022/03/09 00:16:32;;;;;;;7.90;7.10;;;5.70;99.90;;;;;;5034629;28;20041;-72
2022/03/09 00:18:58;;;;;;;9.45;7.88;;;5.60;99.90;;;;;;5034919;28;20014;-71
2022/03/09 00:21:24;;;;;;;8.80;7.90;;;5.70;99.90;;;;;;5037616;28;20059;-73
2022/03/09 00:23:49;;;;;;;9.70;7.80;;;5.60;99.90;;;;;;5036168;28;20035;-71
2022/03/09 00:26:15;;;;;;;9.35;7.55;;;5.50;99.90;;;;;;5036834;28;20401;-71
2022/03/09 00:28:41;;;;;;;8.77;7.43;;;5.60;99.90;;;;;;5034134;28;20036;-72
2022/03/09 00:31:07;;;;;;;9.35;7.30;;;5.50;99.90;;;;;;5032951;28;20141;-71
2022/03/09 00:33:33;;;;;;;9.60;7.22;;;5.50;99.90;;;;;;5038602;28;20025;-71
2022/03/09 00:36:00;;;;;;;8.73;7.15;;;5.40;99.90;;;;;;5035546;28;20521;-71
2022/03/09 00:38:26;;;;;;;9.48;7.00;;;5.40;99.90;;;;;;5035971;28;20113;-71
2022/03/09 00:40:53;;;;;;;7.07;6.03;;;5.40;99.90;;;;;;5036250;28;20119;-71
2022/03/09 00:43:19;;;;;;;10.00;6.70;;;5.50;99.90;;;;;;5030732;28;20025;-71
2022/03/09 00:45:45;;;;;;;7.55;6.15;;;5.40;99.90;;;;;;5037542;28;20541;-71
2022/03/09 00:48:11;;;;;;;7.55;5.32;;;5.50;99.90;;;;;;5036386;28;20087;-71
2022/03/09 00:50:37;;;;;;;7.00;5.25;;;5.50;99.90;;;;;;5034296;28;20030;-71
2022/03/09 00:53:03;;;;;;;6.20;5.20;;;5.40;99.90;;;;;;5035751;28;20447;-71
2022/03/09 00:55:29;;;;;;;7.20;5.05;;;5.40;99.90;;;;;;5033096;28;20120;-71
2022/03/09 00:57:55;;;;;;;5.68;5.00;;;5.30;99.90;;;;;;5035255;28;20048;-71
2022/03/09 01:00:21;;;;;;;5.85;5.10;;;5.30;99.90;;;;;;5036933;28;20474;-72
2022/03/09 01:02:48;;;;;;;6.00;5.40;;;5.20;99.90;;;;;;5035592;28;20033;-72
2022/03/09 01:05:14;;;;;;;6.47;5.25;;;5.20;99.90;;;;;;5035195;28;20054;-72
2022/03/09 01:07:40;;;;;;;6.72;6.00;;;5.20;99.90;;;;;;5033042;28;20040;-72
2022/03/09 01:10:07;;;;;;;7.47;5.70;;;5.00;99.90;;;;;;5031220;28;20091;-72
2022/03/09 01:12:33;;;;;;;7.70;6.22;;;5.00;99.90;;;;;;5037484;28;20033;-72
2022/03/09 01:14:59;;;;;;;7.20;6.28;;;4.70;99.90;;;;;;5035645;28;20455;-72
2022/03/09 01:17:26;;;;;;;7.20;6.28;;;4.50;99.90;;;;;;5035286;28;20029;-72
2022/03/09 01:19:52;;;;;;;6.05;5.45;;;4.60;99.90;;;;;;5034918;28;20078;-72
2022/03/09 01:22:18;;;;;;;7.22;5.68;;;4.50;99.90;;;;;;5029661;28;20025;-71
2022/03/09 01:24:44;;;;;;;11.07;7.60;;;4.50;99.90;;;;;;5037466;28;20033;-72
2022/03/09 01:27:09;;;;;;;31.50;28.50;;;4.30;99.90;;;;;;5033933;28;20040;-72
2022/03/09 01:29:35;;;;;;;29.90;26.92;;;4.00;99.90;;;;;;5034110;28;20034;-72
2022/03/09 01:32:01;;;;;;;45.15;40.85;;;4.10;99.90;;;;;;5035315;28;20029;-72
2022/03/09 01:34:26;;;;;;;10.55;9.10;;;3.90;99.90;;;;;;5031330;28;20056;-72
2022/03/09 01:36:52;;;;;;;10.27;9.27;;;3.90;99.90;;;;;;5033731;28;20052;-72
2022/03/09 01:39:20;;;;;;;23.92;15.27;;;3.90;99.90;;;;;;5035492;28;20021;-72
2022/03/09 01:41:46;;;;;;;13.90;11.60;;;4.00;99.90;;;;;;5034949;28;20033;-72
2022/03/09 01:44:17;;;;;;;14.45;12.95;;;4.00;99.90;;;;;;5034793;28;20033;-72
2022/03/09 01:46:47;;;;;;;12.27;10.80;;;3.90;99.90;;;;;;5032361;28;20059;-72
2022/03/09 01:49:13;;;;;;;9.23;7.15;;;3.80;99.90;;;;;;5030802;28;20022;-72
2022/03/09 01:51:42;;;;;;;12.80;9.52;;;3.80;99.90;;;;;;5036753;28;20414;-72
2022/03/09 01:54:08;;;;;;;7.55;6.18;;;3.80;99.90;;;;;;5034696;28;20025;-72
2022/03/09 01:56:37;;;;;;;11.85;8.43;;;3.90;99.90;;;;;;5034601;28;20060;-72
2022/03/09 01:59:04;;;;;;;24.45;14.35;;;4.00;99.90;;;;;;5035176;28;20033;-72
2022/03/09 02:01:30;;;;;;;23.67;15.23;;;3.80;99.90;;;;;;5030193;28;20029;-72
2022/03/09 02:03:57;;;;;;;27.63;17.45;;;3.60;99.90;;;;;;5033354;28;20025;-72
2022/03/09 02:06:23;;;;;;;18.08;12.40;;;3.60;99.90;;;;;;5035621;28;20025;-72
2022/03/09 02:11:34;;;;;;;10.25;6.30;;;3.60;99.90;;;;;;5035240;28;20037;-72
2022/03/09 02:14:01;;;;;;;9.45;5.70;;;3.60;99.90;;;;;;5034114;28;20033;-73
2022/03/09 02:16:27;;;;;;;6.28;4.05;;;3.90;99.90;;;;;;5031160;28;20079;-73
2022/03/09 02:18:53;;;;;;;4.78;4.22;;;4.00;99.90;;;;;;5034283;28;20028;-73
2022/03/09 02:21:20;;;;;;;5.10;4.15;;;4.20;99.90;;;;;;5034890;28;20116;-73
2022/03/09 02:23:47;;;;;;;4.75;3.70;;;4.20;99.90;;;;;;5034195;28;20021;-72
2022/03/09 02:26:13;;;;;;;5.85;3.85;;;4.30;99.90;;;;;;5033208;28;20045;-72
2022/03/09 02:28:39;;;;;;;4.60;3.72;;;4.20;99.90;;;;;;5032766;28;20027;-73
2022/03/09 02:31:06;;;;;;;4.65;3.50;;;4.30;99.90;;;;;;5031067;28;20025;-73
2022/03/09 02:33:32;;;;;;;5.28;3.50;;;4.40;99.90;;;;;;5035857;28;20028;-73
2022/03/09 02:35:58;;;;;;;4.05;3.05;;;4.40;99.90;;;;;;5033979;28;20045;-73
2022/03/09 02:38:23;;;;;;;3.47;3.17;;;4.40;99.90;;;;;;5034030;28;20083;-73
2022/03/09 02:40:49;;;;;;;4.88;3.40;;;4.30;99.90;;;;;;5031065;28;20091;-73
2022/03/09 02:43:15;;;;;;;3.75;3.10;;;4.30;99.90;;;;;;5014025;28;20018;-73
2022/03/09 02:45:41;;;;;;;4.30;3.42;;;4.30;99.90;;;;;;5035848;28;20100;-73
2022/03/09 02:48:06;;;;;;;4.90;3.05;;;4.30;99.90;;;;;;5033933;28;20078;-72
2022/03/09 02:50:32;;;;;;;4.90;3.22;;;4.30;99.90;;;;;;5033879;28;20390;-72
2022/03/09 02:52:58;;;;;;;5.85;3.20;;;4.30;99.90;;;;;;5034349;28;20021;-72
2022/03/09 02:55:23;;;;;;;6.68;2.90;;;4.40;99.90;;;;;;5030318;28;20041;-72
2022/03/09 02:57:49;;;;;;;4.25;2.72;;;4.50;99.90;;;;;;5034715;28;20026;-72
2022/03/09 03:00:15;;;;;;;3.63;2.45;;;4.40;99.90;;;;;;5065143;28;20033;-73
2022/03/09 03:02:41;;;;;;;4.65;2.95;;;4.50;99.90;;;;;;5033776;28;20083;-72
2022/03/09 03:05:08;;;;;;;3.53;2.67;;;4.50;99.90;;;;;;5032425;28;20036;-73
2022/03/09 03:07:34;;;;;;;4.63;2.80;;;4.50;99.90;;;;;;5031838;28;20036;-72
2022/03/09 03:10:00;;;;;;;5.30;2.72;;;4.60;99.90;;;;;;5031941;28;20064;-72
2022/03/09 03:12:26;;;;;;;4.80;3.40;;;4.50;99.90;;;;;;5035619;28;20078;-72
2022/03/09 03:14:51;;;;;;;4.22;3.10;;;4.50;99.90;;;;;;5033411;28;20038;-72
2022/03/09 03:17:17;;;;;;;4.28;2.67;;;4.50;99.90;;;;;;5034663;28;20036;-72
2022/03/09 03:19:43;;;;;;;5.97;2.50;;;4.50;99.90;;;;;;5035590;28;20104;-72
2022/03/09 03:22:09;;;;;;;3.30;2.50;;;4.60;99.90;;;;;;5034115;28;20383;-72
2022/03/09 03:24:35;;;;;;;3.30;2.38;;;4.60;99.90;;;;;;5039445;28;20041;-72
2022/03/09 03:27:00;;;;;;;4.65;2.38;;;4.60;99.90;;;;;;5037461;28;20509;-72
2022/03/09 03:29:26;;;;;;;4.40;2.80;;;4.50;99.90;;;;;;5037080;28;20037;-72
2022/03/09 03:31:52;;;;;;;2.47;2.15;;;4.50;99.90;;;;;;5037197;28;20405;-72
2022/03/09 03:34:18;;;;;;;4.55;2.40;;;4.60;99.90;;;;;;5033232;28;20491;-72
2022/03/09 03:36:43;;;;;;;2.70;2.10;;;4.60;99.90;;;;;;5039339;28;20037;-72
2022/03/09 03:39:09;;;;;;;4.00;2.45;;;4.70;99.90;;;;;;5037187;28;20029;-72
2022/03/09 03:41:36;;;;;;;4.32;2.33;;;4.70;99.90;;;;;;5037316;28;20112;-72
2022/03/09 03:44:02;;;;;;;3.22;2.08;;;4.70;99.90;;;;;;5035356;28;20040;-72
2022/03/09 03:46:28;;;;;;;2.70;2.25;;;4.70;99.90;;;;;;5034122;28;20071;-72
2022/03/09 03:48:54;;;;;;;3.30;2.30;;;4.70;99.90;;;;;;5037473;28;20033;-71
2022/03/09 03:51:20;;;;;;;3.22;2.40;;;4.80;99.90;;;;;;5037712;28;20017;-71
2022/03/09 03:53:45;;;;;;;2.70;2.10;;;4.80;99.90;;;;;;5036866;28;20034;-71
2022/03/09 03:56:11;;;;;;;2.78;2.10;;;4.80;99.90;;;;;;5036829;28;20056;-72
2022/03/09 03:58:37;;;;;;;3.97;2.20;;;4.80;99.90;;;;;;5033301;28;20029;-72
2022/03/09 04:01:02;;;;;;;3.28;2.00;;;4.70;99.90;;;;;;5034154;28;20040;-72
2022/03/09 04:03:28;;;;;;;3.13;2.15;;;4.70;99.90;;;;;;5038634;28;20482;-72
2022/03/09 04:05:54;;;;;;;2.78;2.15;;;4.80;99.90;;;;;;5036782;28;20061;-71
2022/03/09 04:08:20;;;;;;;3.05;2.20;;;4.80;99.90;;;;;;5036781;28;20017;-71
2022/03/09 04:10:45;;;;;;;2.38;2.17;;;4.80;99.90;;;;;;5036571;28;20123;-71
2022/03/09 04:13:11;;;;;;;3.63;2.45;;;4.80;99.90;;;;;;5032559;28;20454;-71
2022/03/09 04:15:37;;;;;;;2.58;2.20;;;4.80;99.90;;;;;;5038319;28;20046;-72
2022/03/09 04:18:02;;;;;;;6.07;2.42;;;4.80;99.90;;;;;;5036422;28;20120;-72
2022/03/09 04:20:28;;;;;;;3.55;2.40;;;4.70;99.90;;;;;;5036571;28;20035;-72
2022/03/09 04:22:54;;;;;;;4.03;2.70;;;4.60;99.90;;;;;;5035045;28;20037;-72
2022/03/09 04:25:20;;;;;;;3.47;2.65;;;4.70;99.90;;;;;;5031898;28;20026;-72
2022/03/09 04:27:45;;;;;;;3.85;2.60;;;4.50;99.90;;;;;;5037560;28;20034;-71
2022/03/09 04:30:12;;;;;;;4.07;2.55;;;4.60;99.90;;;;;;5036189;28;20037;-71
2022/03/09 04:32:37;;;;;;;4.32;3.10;;;4.60;99.90;;;;;;5036270;28;20056;-71
2022/03/09 04:35:05;;;;;;;3.78;2.90;;;4.40;99.90;;;;;;5035922;28;20111;-71
2022/03/09 04:37:31;;;;;;;4.07;3.13;;;4.40;99.90;;;;;;5032555;28;20446;-71
2022/03/09 04:40:04;;;;;;;4.00;2.80;;;4.40;99.90;;;;;;5035237;28;20022;-71
2022/03/09 04:42:31;;;;;;;4.78;3.10;;;4.40;99.90;;;;;;5035886;28;20045;-71
2022/03/09 04:44:57;;;;;;;6.43;3.10;;;4.50;99.90;;;;;;5035872;28;20060;-71
2022/03/09 04:47:22;;;;;;;4.63;3.15;;;4.50;99.90;;;;;;5036352;28;20037;-71
2022/03/09 04:49:50;;;;;;;3.80;3.13;;;4.60;99.90;;;;;;5035797;28;20028;-71
2022/03/09 04:52:17;;;;;;;3.22;2.80;;;4.50;99.90;;;;;;5015964;28;20030;-71
2022/03/09 04:54:43;;;;;;;4.32;3.00;;;4.50;99.90;;;;;;5037766;28;20034;-71
2022/03/09 04:57:09;;;;;;;3.45;3.17;;;4.50;99.90;;;;;;5035487;28;20033;-71
2022/03/09 04:59:34;;;;;;;3.53;3.20;;;4.60;99.90;;;;;;5035760;28;20030;-71
2022/03/09 05:02:00;;;;;;;4.25;3.10;;;4.50;99.90;;;;;;5034779;28;20112;-71
2022/03/09 05:04:26;;;;;;;5.15;2.90;;;4.60;99.90;;;;;;5032170;28;20152;-72
2022/03/09 05:06:52;;;;;;;4.45;2.97;;;4.60;99.90;;;;;;5035961;28;20018;-71
2022/03/09 05:09:17;;;;;;;4.25;2.38;;;4.50;99.90;;;;;;5036361;28;20564;-71
2022/03/09 05:11:43;;;;;;;3.88;2.33;;;4.60;99.90;;;;;;5035669;28;20501;-71
2022/03/09 05:14:09;;;;;;;3.15;2.58;;;4.80;99.90;;;;;;5035438;28;20033;-72
2022/03/09 05:16:35;;;;;;;2.90;2.60;;;4.70;99.90;;;;;;5031952;28;20511;-72
2022/03/09 05:19:00;;;;;;;3.78;2.42;;;4.70;99.90;;;;;;5032583;28;20471;-71
2022/03/09 05:21:26;;;;;;;4.13;2.80;;;4.80;99.90;;;;;;5037237;28;20487;-71
2022/03/09 05:23:52;;;;;;;2.83;2.60;;;4.80;99.90;;;;;;5034135;28;20387;-71
2022/03/09 05:26:17;;;;;;;3.33;2.83;;;4.90;99.90;;;;;;5035095;28;20030;-71
2022/03/09 05:28:43;;;;;;;2.58;2.38;;;4.90;99.90;;;;;;5034749;28;20032;-72
2022/03/09 05:31:09;;;;;;;2.60;2.40;;;4.90;99.90;;;;;;5031991;28;20033;-72
2022/03/09 05:33:35;;;;;;;3.92;2.60;;;4.80;99.90;;;;;;5037340;28;20047;-72
2022/03/09 05:36:00;;;;;;;3.03;2.70;;;4.80;99.90;;;;;;5034942;28;20061;-71
2022/03/09 05:38:26;;;;;;;4.55;2.63;;;4.80;99.90;;;;;;5035456;28;20067;-70
2022/03/09 05:40:52;;;;;;;4.95;4.40;;;4.80;99.90;;;;;;5032799;28;20056;-71
2022/03/09 05:43:17;;;;;;;4.00;3.30;;;4.80;99.90;;;;;;5029537;28;20061;-71
2022/03/09 05:45:43;;;;;;;2.65;2.45;;;4.70;99.90;;;;;;5037058;28;20029;-71
2022/03/09 05:48:09;;;;;;;2.65;2.45;;;4.70;99.90;;;;;;5035005;28;20030;-71
2022/03/09 05:50:36;;;;;;;2.75;2.55;;;4.60;99.90;;;;;;5035298;28;20406;-71
2022/03/09 05:53:02;;;;;;;2.60;2.40;;;4.70;99.90;;;;;;5034832;28;20028;-72
2022/03/09 05:55:28;;;;;;;2.60;2.28;;;4.70;99.90;;;;;;5030011;28;20508;-72
2022/03/09 05:57:54;;;;;;;2.80;2.50;;;4.70;99.90;;;;;;5034892;28;20061;-72
2022/03/09 06:00:20;;;;;;;2.72;2.35;;;4.70;99.90;;;;;;5035696;28;20025;-72
2022/03/09 06:02:45;;;;;;;4.50;2.38;;;4.70;99.90;;;;;;5034707;28;20095;-72
2022/03/09 06:05:11;;;;;;;3.08;2.17;;;4.60;99.90;;;;;;5033276;28;20446;-71
2022/03/09 06:07:37;;;;;;;2.83;2.28;;;4.60;99.90;;;;;;5033114;28;20030;-64
2022/03/09 06:10:03;;;;;;;3.53;2.60;;;4.60;99.90;;;;;;5032129;28;20108;-71
2022/03/09 06:12:29;;;;;;;3.22;2.30;;;4.50;99.90;;;;;;5034403;28;20021;-71
2022/03/09 06:14:55;;;;;;;2.80;2.50;;;4.50;99.90;;;;;;5034399;28;20033;-71
2022/03/09 06:17:21;;;;;;;2.97;2.65;;;4.50;99.90;;;;;;5034389;28;20041;-72
2022/03/09 06:19:47;;;;;;;3.03;2.70;;;4.50;99.90;;;;;;5032569;28;20025;-71
2022/03/09 06:22:13;;;;;;;3.05;2.70;;;4.50;99.90;;;;;;5030171;28;20037;-71
2022/03/09 06:24:38;;;;;;;3.88;3.33;;;4.40;99.90;;;;;;5036729;28;20024;-71
2022/03/09 06:27:04;;;;;;;5.43;3.30;;;4.40;99.90;;;;;;5034252;28;20037;-70
2022/03/09 06:29:30;;;;;;;3.65;3.17;;;4.50;99.90;;;;;;5034337;28;20136;-70
2022/03/09 06:31:56;;;;;;;5.43;3.38;;;4.40;99.90;;;;;;5034720;28;20207;-71
2022/03/09 06:34:22;;;;;;;4.55;3.28;;;4.40;99.90;;;;;;5028447;28;20130;-69
2022/03/09 06:36:48;;;;;;;3.53;2.80;;;4.40;99.90;;;;;;5034240;28;20112;-69
2022/03/09 06:39:16;;;;;;;3.33;3.03;;;4.40;99.90;;;;;;5033009;28;20029;-70
2022/03/09 06:41:43;;;;;;;2.95;2.70;;;4.40;99.90;;;;;;5034097;28;20033;-71
2022/03/09 06:44:09;;;;;;;2.92;2.65;;;4.40;99.90;;;;;;5033972;28;20056;-70
2022/03/09 06:46:35;;;;;;;2.88;2.55;;;4.70;99.90;;;;;;5032117;28;20048;-71
2022/03/09 06:49:01;;;;;;;4.40;2.80;;;5.60;99.90;;;;;;5032526;28;20475;-70
2022/03/09 06:51:27;;;;;;;63.45;7.50;;;6.40;99.90;;;;;;5036733;28;20033;-70
2022/03/09 06:53:52;;;;;;;2.80;2.20;;;7.10;99.90;;;;;;5038364;28;20463;-70
2022/03/09 06:56:18;;;;;;;12.75;3.03;;;7.70;99.90;;;;;;5038083;28;20407;-70
2022/03/09 06:58:45;;;;;;;9.98;3.13;;;8.00;99.90;;;;;;5035649;28;20048;-69
2022/03/09 07:01:11;;;;;;;2.78;2.40;;;9.00;99.90;;;;;;5034490;28;20030;-70
2022/03/09 07:03:37;;;;;;;3.13;2.53;;;9.00;99.90;;;;;;5039995;28;20105;-70
2022/03/09 07:06:03;;;;;;;4.88;3.30;;;9.80;99.90;;;;;;5038157;28;20227;-70
2022/03/09 07:08:29;;;;;;;3.30;2.65;;;10.20;99.90;;;;;;5037623;28;20099;-70
2022/03/09 07:10:55;;;;;;;3.05;2.50;;;10.40;99.90;;;;;;5036808;28;20043;-70
2022/03/09 07:13:20;;;;;;;3.05;1.90;;;11.10;99.90;;;;;;5032123;28;20026;-70
2022/03/09 07:15:46;;;;;;;2.28;1.90;;;10.80;99.90;;;;;;5039465;28;20111;-69
2022/03/09 07:18:12;;;;;;;3.58;1.80;;;10.90;99.90;;;;;;5037879;28;20478;-70
2022/03/09 07:20:40;;;;;;;2.30;1.80;;;11.40;99.90;;;;;;5037564;28;20084;-70
2022/03/09 07:23:06;;;;;;;2.40;1.88;;;11.40;99.90;;;;;;5037464;28;20411;-70
2022/03/09 07:25:32;;;;;;;2.10;1.63;;;11.10;99.90;;;;;;5035098;28;20107;-70
2022/03/09 07:27:58;;;;;;;2.08;1.67;;;11.10;99.90;;;;;;5036493;28;20040;-68
2022/03/09 07:30:24;;;;;;;2.55;1.52;;;11.60;99.90;;;;;;5039170;28;20029;-68
2022/03/09 07:32:49;;;;;;;4.28;1.52;;;11.90;99.90;;;;;;5037395;28;20395;-68
2022/03/09 07:35:15;;;;;;;2.80;1.52;;;11.70;99.90;;;;;;5036798;28;20494;-68
2022/03/09 07:37:41;;;;;;;2.15;1.60;;;12.40;99.90;;;;;;5033335;28;20112;-68
2022/03/09 07:40:08;;;;;;;1.52;1.40;;;13.00;99.90;;;;;;5034702;28;20025;-67
2022/03/09 07:42:34;;;;;;;1.40;1.30;;;13.10;99.90;;;;;;5039221;28;20470;-67
2022/03/09 07:45:00;;;;;;;2.45;1.45;;;13.60;99.90;;;;;;5036984;28;20025;-66
2022/03/09 07:47:27;;;;;;;1.67;1.30;;;13.60;99.90;;;;;;5037037;28;20032;-67
2022/03/09 07:49:52;;;;;;;2.25;1.48;;;13.50;99.90;;;;;;5036766;28;20029;-68
2022/03/09 07:52:18;;;;;;;1.50;1.30;;;12.10;99.90;;;;;;5031459;28;20037;-68
2022/03/09 07:54:44;;;;;;;1.90;1.40;;;13.50;99.90;;;;;;5039253;28;20374;-66
2022/03/09 07:57:10;;;;;;;3.22;1.48;;;13.40;99.90;;;;;;5036798;28;20037;-68
2022/03/09 07:59:36;;;;;;;1.98;1.20;;;13.40;99.90;;;;;;5037000;28;20033;-67
2022/03/09 08:02:02;;;;;;;3.30;1.58;;;14.60;99.90;;;;;;5037307;28;20048;-68
2022/03/09 08:04:28;;;;;;;1.50;1.25;;;15.10;99.90;;;;;;5032438;28;20017;-66
2022/03/09 08:06:54;;;;;;;2.13;1.48;;;15.60;99.90;;;;;;5036915;28;20151;-67
2022/03/09 08:09:20;;;;;;;2.00;1.50;;;15.40;99.90;;;;;;5037198;28;20036;-67
2022/03/09 08:11:46;;;;;;;2.17;1.20;;;16.70;99.90;;;;;;5036593;28;20168;-68
2022/03/09 08:14:13;;;;;;;3.15;1.25;;;16.60;99.90;;;;;;5035325;28;20041;-67
2022/03/09 08:16:39;;;;;;;2.15;1.13;;;17.20;99.90;;;;;;5034069;28;20044;-64
2022/03/09 08:19:05;;;;;;;1.55;1.20;;;17.20;99.90;;;;;;5033716;28;20112;-68
2022/03/09 08:21:31;;;;;;;1.88;1.17;;;17.70;99.80;;;;;;5037966;28;20033;-67
2022/03/09 08:23:57;;;;;;;1.48;1.20;;;16.80;99.90;;;;;;5036051;28;20013;-67
2022/03/09 08:26:23;;;;;;;2.88;1.05;;;17.40;99.40;;;;;;5036332;28;20056;-68
2022/03/09 08:28:49;;;;;;;1.30;1.08;;;16.40;99.90;;;;;;5036182;28;20382;-68
2022/03/09 08:31:15;;;;;;;3.25;1.20;;;15.40;99.90;;;;;;5031144;28;20037;-68
2022/03/09 08:33:42;;;;;;;1.92;1.10;;;18.10;99.20;;;;;;5037325;28;20144;-68
2022/03/09 08:36:08;;;;;;;1.65;1.10;;;17.90;98.60;;;;;;5035755;28;20063;-69
2022/03/09 08:38:33;;;;;;;1.40;1.15;;;17.70;99.50;;;;;;5036386;28;20021;-68
2022/03/09 08:40:59;;;;;;;1.92;1.08;;;16.80;99.70;;;;;;5036425;28;20025;-67
2022/03/09 08:43:25;;;;;;;2.75;1.17;;;17.20;99.50;;;;;;5032732;28;20110;-67
2022/03/09 08:45:51;;;;;;;2.53;1.00;;;18.00;98.50;;;;;;5036144;28;20026;-68
2022/03/09 08:48:17;;;;;;;3.92;1.23;;;18.60;97.00;;;;;;5036334;28;20537;-68
2022/03/09 08:50:43;;;;;;;1.77;1.00;;;17.90;96.60;;;;;;5036024;28;20048;-67
2022/03/09 08:53:09;;;;;;;1.40;1.00;;;18.20;98.10;;;;;;5036316;28;20033;-68
2022/03/09 08:55:35;;;;;;;2.00;1.08;;;19.90;96.50;;;;;;5039203;28;20051;-68
2022/03/09 08:58:01;;;;;;;1.55;1.02;;;19.10;96.30;;;;;;5033864;28;20034;-68
2022/03/09 09:00:27;;;;;;;2.40;1.17;;;17.80;96.70;;;;;;5037636;28;20474;-68
2022/03/09 09:02:53;;;;;;;1.58;1.10;;;17.60;97.50;;;;;;5035691;28;20026;-69
2022/03/09 09:05:19;;;;;;;1.48;1.05;;;19.70;96.10;;;;;;5035548;28;20398;-68
2022/03/09 09:07:45;;;;;;;2.13;1.20;;;18.80;95.30;;;;;;5035015;28;20025;-69
2022/03/09 09:10:11;;;;;;;1.65;1.00;;;17.80;97.20;;;;;;5031800;28;20036;-68
2022/03/09 09:12:37;;;;;;;1.20;1.10;;;18.20;96.70;;;;;;5037000;28;20389;-68
2022/03/09 09:15:04;;;;;;;1.95;1.23;;;18.40;96.70;;;;;;5034412;28;20139;-69
2022/03/09 09:17:30;;;;;;;5.03;1.27;;;19.10;96.10;;;;;;5035125;28;20029;-68
2022/03/09 09:19:55;;;;;;;2.03;1.27;;;19.10;95.80;;;;;;5035529;28;20072;-68
2022/03/09 09:22:21;;;;;;;2.05;1.30;;;19.00;96.20;;;;;;5031966;28;20026;-68
2022/03/09 09:24:47;;;;;;;3.00;1.10;;;18.70;96.00;;;;;;5037029;28;20033;-68
2022/03/09 09:27:13;;;;;;;1.73;1.15;;;18.30;96.70;;;;;;5033967;28;20425;-68
2022/03/09 09:29:38;;;;;;;1.90;1.17;;;18.40;96.40;;;;;;5033832;28;20083;-68
2022/03/09 09:32:05;;;;;;;2.88;1.38;;;19.10;95.70;;;;;;5034926;28;20463;-69
2022/03/09 09:34:30;;;;;;;2.40;1.27;;;19.50;95.50;;;;;;5030908;28;20049;-68
2022/03/09 09:36:56;;;;;;;1.75;1.13;;;19.60;95.40;;;;;;5034470;28;20461;-68
2022/03/09 09:39:22;;;;;;;2.22;1.38;;;19.90;95.30;;;;;;5036485;28;20029;-68
2022/03/09 09:41:53;;;;;;;3.42;1.25;;;20.10;94.30;;;;;;5035070;28;20079;-68
2022/03/09 09:44:24;;;;;;;2.33;1.20;;;19.30;95.00;;;;;;5034790;28;20064;-68
2022/03/09 09:46:51;;;;;;;2.30;1.20;;;19.40;94.20;;;;;;5034710;28;20359;-68
2022/03/09 09:49:23;;;;;;;3.10;1.20;;;19.10;95.30;;;;;;5013400;28;20029;-69
2022/03/09 09:51:51;;;;;;;2.58;1.20;;;19.30;94.70;;;;;;5045094;28;20367;-69
2022/03/09 09:54:18;;;;;;;3.42;1.30;;;19.50;94.60;;;;;;5032871;28;20036;-71
2022/03/09 09:56:44;;;;;;;1.70;1.10;;;20.40;94.40;;;;;;5034792;28;20465;-68
2022/03/09 09:59:11;;;;;;;1.85;1.10;;;19.40;93.90;;;;;;5032938;28;20029;-69
2022/03/09 10:01:37;;;;;;;2.50;1.13;;;19.70;94.50;;;;;;5032433;28;20022;-68
2022/03/09 10:04:04;;;;;;;4.35;1.40;;;19.70;94.00;;;;;;5032134;28;20033;-68
2022/03/09 10:06:30;;;;;;;2.67;1.10;;;20.20;93.40;;;;;;5034652;28;20099;-69
2022/03/09 10:09:11;;;;;;;1.48;0.93;;;19.90;93.70;;;;;;5035078;28;20486;-69
2022/03/09 10:11:50;;;;;;;2.72;1.30;;;20.00;93.10;;;;;;5034388;28;20041;-69
2022/03/09 10:14:37;;;;;;;2.17;1.30;;;19.70;93.30;;;;;;5032675;28;20029;-69
2022/03/09 10:17:15;;;;;;;2.50;0.98;;;19.10;94.40;;;;;;5030522;28;20109;-69
2022/03/09 10:19:44;;;;;;;1.67;1.10;;;20.40;92.60;;;;;;5033598;28;20021;-69
2022/03/09 10:22:28;;;;;;;2.05;1.13;;;18.70;94.00;;;;;;5031016;28;20037;-68
2022/03/09 10:25:02;;;;;;;2.13;1.10;;;19.20;93.80;;;;;;5044224;28;20495;-69
2022/03/09 10:27:43;;;;;;;1.95;0.90;;;18.90;94.00;;;;;;5036296;28;20391;-69
2022/03/09 10:30:14;;;;;;;2.83;1.10;;;18.40;94.40;;;;;;5032425;28;20037;-69
2022/03/09 10:32:44;;;;;;;2.00;0.90;;;19.60;93.00;;;;;;5034073;28;20053;-69
2022/03/09 10:35:14;;;;;;;2.08;1.10;;;19.10;94.40;;;;;;5033602;28;20097;-70
2022/03/09 10:37:43;;;;;;;1.50;1.00;;;19.00;93.20;;;;;;5031893;28;20403;-68
2022/03/09 10:40:21;;;;;;;1.27;0.90;;;18.80;93.50;;;;;;5031062;28;20040;-69
2022/03/09 10:42:48;;;;;;;3.30;1.13;;;18.70;93.30;;;;;;5043570;28;20029;-70
2022/03/09 10:45:17;;;;;;;1.55;0.90;;;20.20;92.20;;;;;;5032330;28;20461;-69
2022/03/09 10:47:47;;;;;;;1.90;0.93;;;19.80;91.60;;;;;;5033867;28;20017;-69
2022/03/09 10:50:19;;;;;;;2.42;1.10;;;18.80;92.30;;;;;;5034027;28;20036;-69
2022/03/09 10:52:49;;;;;;;2.17;1.10;;;18.50;93.40;;;;;;5032125;28;20380;-70
2022/03/09 10:55:37;;;;;;;1.50;1.00;;;19.90;91.70;;;;;;5029722;28;20052;-70
2022/03/09 10:58:21;;;;;;;3.53;1.00;;;19.50;91.70;;;;;;5059283;28;20041;-70
2022/03/09 11:00:50;;;;;;;3.60;0.85;;;19.20;92.00;;;;;;5075537;28;20061;-70
2022/03/09 11:03:18;;;;;;;2.38;0.90;;;19.20;92.80;;;;;;5034110;28;20033;-70
2022/03/09 11:05:51;;;;;;;1.67;1.05;;;18.70;93.90;;;;;;5034301;28;20487;-70
2022/03/09 11:08:20;;;;;;;1.40;0.80;;;18.40;93.90;;;;;;5032458;28;20381;-70
2022/03/09 11:10:46;;;;;;;3.70;0.90;;;18.80;93.00;;;;;;5033184;28;20049;-69
2022/03/09 11:13:13;;;;;;;2.13;0.80;;;18.20;92.40;;;;;;5030123;28;20044;-70
2022/03/09 11:15:43;;;;;;;3.03;1.10;;;18.20;93.50;;;;;;5035569;28;20033;-70
2022/03/09 11:18:14;;;;;;;2.70;1.00;;;18.40;92.70;;;;;;5032572;28;20367;-71
2022/03/09 11:20:41;;;;;;;1.65;1.00;;;18.20;93.50;;;;;;5033668;28;20088;-71
2022/03/09 11:23:07;;;;;;;3.63;0.85;;;18.00;92.90;;;;;;5033443;28;20079;-71
2022/03/09 11:25:33;;;;;;;1.02;0.80;;;18.20;92.80;;;;;;5031317;28;20490;-66
2022/03/09 11:28:01;;;;;;;1.85;1.00;;;18.40;92.90;;;;;;5032303;28;20010;-66
2022/03/09 11:30:29;;;;;;;1.40;0.88;;;18.60;92.10;;;;;;5034730;28;20061;-70
2022/03/09 11:32:56;;;;;;;2.28;0.77;;;18.40;92.10;;;;;;5032544;28;20044;-67
2022/03/09 11:35:41;;;;;;;1.52;0.90;;;18.40;92.40;;;;;;5033147;28;20116;-68
2022/03/09 11:38:43;;;;;;;1.10;0.80;;;18.50;92.70;;;;;;5034356;28;20095;-68
2022/03/09 11:41:17;;;;;;;1.23;0.90;;;18.60;92.00;;;;;;5011883;28;20534;-68
2022/03/09 11:43:42;;;;;;;1.02;0.65;;;18.40;92.50;;;;;;5012362;28;20510;-69
2022/03/09 11:46:08;;;;;;;4.82;1.15;;;18.50;92.20;;;;;;5011818;28;20023;-68
2022/03/09 11:48:57;;;;;;;4.80;1.00;;;18.80;93.10;;;;;;5012613;28;20133;-68
2022/03/09 11:51:27;;;;;;;1.90;0.95;;;18.50;91.60;;;;;;5011884;28;20041;-69
2022/03/09 11:53:58;;;;;;;1.00;0.80;;;18.20;92.30;;;;;;5012160;28;20026;-68
2022/03/09 11:56:33;;;;;;;3.03;0.93;;;18.30;90.40;;;;;;5011426;28;20050;-69
2022/03/09 11:59:14;;;;;;;2.40;0.82;;;18.40;91.60;;;;;;5011987;28;20045;-69
2022/03/09 12:01:57;;;;;;;2.17;0.98;;;18.60;91.20;;;;;;5012105;28;20038;-69
2022/03/09 12:05:04;;;;;;;1.52;0.88;;;18.20;90.70;;;;;;5011906;28;20092;-69
2022/03/09 12:07:27;;;;;;;2.63;0.80;;;18.50;91.20;;;;;;4997311;28;20575;-67
2022/03/09 12:09:59;;;;;;;1.88;1.00;;;17.80;91.90;;;;;;5012088;28;20336;-69
2022/03/09 12:12:26;;;;;;;2.50;1.00;;;18.10;92.00;;;;;;5011741;28;20410;-69
2022/03/09 12:15:06;;;;;;;2.72;0.90;;;18.90;90.80;;;;;;5020365;28;20029;-70
2022/03/09 12:17:38;;;;;;;1.58;0.80;;;18.70;89.80;;;;;;5036573;28;20402;-70
2022/03/09 12:20:20;;;;;;;1.02;0.80;;;18.50;91.70;;;;;;5036626;28;20108;-69
2022/03/09 12:23:00;;;;;;;1.13;0.70;;;18.50;89.70;;;;;;5035746;28;20108;-70
2022/03/09 12:25:41;;;;;;;1.08;0.65;;;18.40;88.80;;;;;;5016723;28;20064;-69
2022/03/09 12:28:35;;;;;;;1.92;0.80;;;18.10;90.00;;;;;;5034040;28;20402;-69
2022/03/09 12:31:07;;;;;;;2.70;1.00;;;18.10;90.10;;;;;;5046317;28;20492;-69
2022/03/09 12:33:36;;;;;;;3.20;1.00;;;18.30;90.90;;;;;;5036819;28;20482;-69
2022/03/09 12:36:20;;;;;;;1.13;0.60;;;18.20;91.30;;;;;;5036576;28;20112;-69
2022/03/09 12:38:54;;;;;;;2.55;1.02;;;17.70;90.20;;;;;;5036248;28;20140;-69
2022/03/09 12:41:39;;;;;;;1.35;0.98;;;18.00;90.30;;;;;;5035973;28;20051;-69
2022/03/09 12:44:10;;;;;;;2.78;0.77;;;18.10;90.00;;;;;;5035981;28;20052;-70
2022/03/09 12:46:39;;;;;;;1.35;0.65;;;17.90;89.70;;;;;;5034098;28;20026;-69
2022/03/09 12:49:07;;;;;;;1.50;0.80;;;17.80;89.80;;;;;;5033901;28;20421;-69
2022/03/09 12:51:34;;;;;;;1.13;0.80;;;17.80;89.50;;;;;;5036527;28;20545;-69
2022/03/09 12:54:00;;;;;;;2.47;0.80;;;17.80;90.20;;;;;;5035579;28;20435;-70
2022/03/09 12:56:28;;;;;;;1.33;1.00;;;18.00;90.90;;;;;;5035844;28;20034;-69